LFPT METAR and TAF | Updated Today

LFPT METAR

Pontoise - Cormeilles-en-Vexin Airport

Observation time: 18 min. ago

LFPT 032230Z AUTO 23007KT 4800 -RA BR FEW006/// SCT011/// BKN019/// ///TCU 09/09 Q1000

Need help? Read our tutorial on how to read METARs or read the parsed version below.

Pontoise - Cormeilles-en-Vexin Airport (LFPT) METAR

  • Weather conditions on Fri, 03 Dec 2021 22:30:00 +0000 (18 min. ago):
  • Present conditions: Light rain; mist
  • Clouds: A few at 183 meters; scattered at 335 meters; broken sky at 579 meters
  • Visibility: 4800 meters
  • Wind: 230 degrees at 7 knots
  • Temperature: 9 celsius
  • Dew point: 9 celsius
  • Pressure: 1000 millibars
  • Remarks: None


Useful to know...